sensor_id;sensor_type;location;lat;lon;timestamp;P1;durP1;ratioP1;P2;durP2;ratioP2
32094;SDS011;18608;53.688;10.748;2023-04-25T00:01:13;15.80;;;9.90;;
32094;SDS011;18608;53.688;10.748;2023-04-25T00:03:39;13.93;;;9.00;;
32094;SDS011;18608;53.688;10.748;2023-04-25T00:06:05;15.10;;;9.10;;
32094;SDS011;18608;53.688;10.748;2023-04-25T00:08:32;14.43;;;10.20;;
32094;SDS011;18608;53.688;10.748;2023-04-25T00:10:59;13.50;;;9.37;;
32094;SDS011;18608;53.688;10.748;2023-04-25T00:13:25;13.23;;;9.93;;
32094;SDS011;18608;53.688;10.748;2023-04-25T00:15:51;17.17;;;8.97;;
32094;SDS011;18608;53.688;10.748;2023-04-25T00:18:21;12.47;;;8.20;;
32094;SDS011;18608;53.688;10.748;2023-04-25T00:20:47;11.47;;;8.50;;
32094;SDS011;18608;53.688;10.748;2023-04-25T00:23:13;16.17;;;9.33;;
32094;SDS011;18608;53.688;10.748;2023-04-25T00:25:46;21.53;;;7.97;;
32094;SDS011;18608;53.688;10.748;2023-04-25T00:28:13;14.10;;;7.60;;
32094;SDS011;18608;53.688;10.748;2023-04-25T00:30:39;10.43;;;6.20;;
32094;SDS011;18608;53.688;10.748;2023-04-25T00:33:06;9.70;;;6.70;;
32094;SDS011;18608;53.688;10.748;2023-04-25T00:35:32;10.23;;;5.83;;
32094;SDS011;18608;53.688;10.748;2023-04-25T00:37:58;16.90;;;7.80;;
32094;SDS011;18608;53.688;10.748;2023-04-25T00:40:24;19.30;;;6.00;;
32094;SDS011;18608;53.688;10.748;2023-04-25T00:42:51;11.67;;;6.13;;
32094;SDS011;18608;53.688;10.748;2023-04-25T00:45:18;7.47;;;4.90;;
32094;SDS011;18608;53.688;10.748;2023-04-25T00:47:44;11.20;;;6.17;;
32094;SDS011;18608;53.688;10.748;2023-04-25T00:50:10;19.17;;;7.40;;
32094;SDS011;18608;53.688;10.748;2023-04-25T00:52:40;8.53;;;5.97;;
32094;SDS011;18608;53.688;10.748;2023-04-25T00:55:08;20.33;;;6.00;;
32094;SDS011;18608;53.688;10.748;2023-04-25T00:57:35;11.07;;;5.70;;
32094;SDS011;18608;53.688;10.748;2023-04-25T01:00:02;11.97;;;6.30;;
32094;SDS011;18608;53.688;10.748;2023-04-25T01:02:30;13.30;;;8.07;;
32094;SDS011;18608;53.688;10.748;2023-04-25T01:04:58;18.40;;;8.10;;
32094;SDS011;18608;53.688;10.748;2023-04-25T01:07:24;17.27;;;7.10;;
32094;SDS011;18608;53.688;10.748;2023-04-25T01:09:53;14.13;;;5.63;;
32094;SDS011;18608;53.688;10.748;2023-04-25T01:12:19;17.27;;;6.50;;
32094;SDS011;18608;53.688;10.748;2023-04-25T01:14:45;17.77;;;7.70;;
32094;SDS011;18608;53.688;10.748;2023-04-25T01:17:12;10.87;;;6.70;;
32094;SDS011;18608;53.688;10.748;2023-04-25T01:19:37;19.67;;;6.60;;
32094;SDS011;18608;53.688;10.748;2023-04-25T01:22:04;21.90;;;6.67;;
32094;SDS011;18608;53.688;10.748;2023-04-25T01:24:32;15.30;;;6.33;;
32094;SDS011;18608;53.688;10.748;2023-04-25T01:26:59;20.37;;;6.63;;
32094;SDS011;18608;53.688;10.748;2023-04-25T01:29:26;16.63;;;6.30;;
32094;SDS011;18608;53.688;10.748;2023-04-25T01:31:53;15.53;;;5.40;;
32094;SDS011;18608;53.688;10.748;2023-04-25T01:34:19;17.27;;;5.17;;
32094;SDS011;18608;53.688;10.748;2023-04-25T01:36:45;9.60;;;4.77;;
32094;SDS011;18608;53.688;10.748;2023-04-25T01:39:13;15.33;;;4.60;;
32094;SDS011;18608;53.688;10.748;2023-04-25T01:41:39;20.03;;;4.20;;
32094;SDS011;18608;53.688;10.748;2023-04-25T01:44:05;14.70;;;5.43;;
32094;SDS011;18608;53.688;10.748;2023-04-25T01:46:33;17.17;;;4.53;;
32094;SDS011;18608;53.688;10.748;2023-04-25T01:48:59;15.50;;;5.90;;
32094;SDS011;18608;53.688;10.748;2023-04-25T01:51:25;9.43;;;4.93;;
32094;SDS011;18608;53.688;10.748;2023-04-25T01:53:51;21.50;;;4.40;;
32094;SDS011;18608;53.688;10.748;2023-04-25T01:56:18;19.23;;;4.43;;
32094;SDS011;18608;53.688;10.748;2023-04-25T01:58:45;12.07;;;5.03;;
32094;SDS011;18608;53.688;10.748;2023-04-25T02:01:11;15.03;;;5.57;;
32094;SDS011;18608;53.688;10.748;2023-04-25T02:03:37;12.13;;;5.87;;
32094;SDS011;18608;53.688;10.748;2023-04-25T02:06:03;25.00;;;5.10;;
32094;SDS011;18608;53.688;10.748;2023-04-25T02:08:29;13.20;;;5.90;;
32094;SDS011;18608;53.688;10.748;2023-04-25T02:10:56;27.53;;;5.93;;
32094;SDS011;18608;53.688;10.748;2023-04-25T02:13:22;21.73;;;4.93;;
32094;SDS011;18608;53.688;10.748;2023-04-25T02:15:48;24.30;;;6.17;;
32094;SDS011;18608;53.688;10.748;2023-04-25T02:18:14;25.63;;;6.23;;
32094;SDS011;18608;53.688;10.748;2023-04-25T02:20:41;31.53;;;6.10;;
32094;SDS011;18608;53.688;10.748;2023-04-25T02:23:07;18.93;;;5.13;;
32094;SDS011;18608;53.688;10.748;2023-04-25T02:25:33;27.87;;;5.77;;
32094;SDS011;18608;53.688;10.748;2023-04-25T02:27:59;19.23;;;4.60;;
32094;SDS011;18608;53.688;10.748;2023-04-25T02:30:25;15.93;;;5.40;;
32094;SDS011;18608;53.688;10.748;2023-04-25T02:32:51;29.53;;;6.33;;
32094;SDS011;18608;53.688;10.748;2023-04-25T02:35:17;14.10;;;5.37;;
32094;SDS011;18608;53.688;10.748;2023-04-25T02:37:43;11.40;;;5.30;;
32094;SDS011;18608;53.688;10.748;2023-04-25T02:40:09;18.67;;;5.50;;
32094;SDS011;18608;53.688;10.748;2023-04-25T02:42:35;21.07;;;5.00;;
32094;SDS011;18608;53.688;10.748;2023-04-25T02:45:02;21.07;;;5.70;;
32094;SDS011;18608;53.688;10.748;2023-04-25T02:47:28;19.83;;;4.97;;
32094;SDS011;18608;53.688;10.748;2023-04-25T02:49:54;27.77;;;6.67;;
32094;SDS011;18608;53.688;10.748;2023-04-25T02:52:20;15.83;;;4.20;;
32094;SDS011;18608;53.688;10.748;2023-04-25T02:54:46;26.50;;;5.47;;
32094;SDS011;18608;53.688;10.748;2023-04-25T02:57:12;17.57;;;5.43;;
32094;SDS011;18608;53.688;10.748;2023-04-25T02:59:38;16.27;;;4.83;;
32094;SDS011;18608;53.688;10.748;2023-04-25T03:02:04;9.57;;;5.17;;
32094;SDS011;18608;53.688;10.748;2023-04-25T03:04:30;25.30;;;5.30;;
32094;SDS011;18608;53.688;10.748;2023-04-25T03:06:56;17.30;;;5.40;;
32094;SDS011;18608;53.688;10.748;2023-04-25T03:09:22;19.73;;;5.30;;
32094;SDS011;18608;53.688;10.748;2023-04-25T03:11:48;30.43;;;5.00;;
32094;SDS011;18608;53.688;10.748;2023-04-25T03:14:14;21.03;;;5.10;;
32094;SDS011;18608;53.688;10.748;2023-04-25T03:16:40;22.47;;;6.20;;
32094;SDS011;18608;53.688;10.748;2023-04-25T03:19:06;20.00;;;4.67;;
32094;SDS011;18608;53.688;10.748;2023-04-25T03:21:32;23.23;;;5.70;;
32094;SDS011;18608;53.688;10.748;2023-04-25T03:24:00;32.03;;;7.13;;
32094;SDS011;18608;53.688;10.748;2023-04-25T03:26:27;18.83;;;5.27;;
32094;SDS011;18608;53.688;10.748;2023-04-25T03:28:53;18.17;;;5.33;;
32094;SDS011;18608;53.688;10.748;2023-04-25T03:31:19;12.37;;;5.00;;
32094;SDS011;18608;53.688;10.748;2023-04-25T03:33:45;15.80;;;5.10;;
32094;SDS011;18608;53.688;10.748;2023-04-25T03:36:11;10.97;;;4.73;;
32094;SDS011;18608;53.688;10.748;2023-04-25T03:38:37;13.93;;;5.30;;
32094;SDS011;18608;53.688;10.748;2023-04-25T03:41:02;24.20;;;5.10;;
32094;SDS011;18608;53.688;10.748;2023-04-25T03:43:29;13.97;;;5.60;;
32094;SDS011;18608;53.688;10.748;2023-04-25T03:45:55;18.47;;;4.63;;
32094;SDS011;18608;53.688;10.748;2023-04-25T03:48:21;31.23;;;6.03;;
32094;SDS011;18608;53.688;10.748;2023-04-25T03:50:49;15.93;;;4.80;;
32094;SDS011;18608;53.688;10.748;2023-04-25T03:53:15;21.90;;;5.20;;
32094;SDS011;18608;53.688;10.748;2023-04-25T03:55:41;19.20;;;5.40;;
32094;SDS011;18608;53.688;10.748;2023-04-25T03:58:07;19.43;;;4.63;;
32094;SDS011;18608;53.688;10.748;2023-04-25T04:00:34;14.83;;;5.10;;
32094;SDS011;18608;53.688;10.748;2023-04-25T04:03:00;27.67;;;6.27;;
32094;SDS011;18608;53.688;10.748;2023-04-25T04:05:26;28.03;;;4.37;;
32094;SDS011;18608;53.688;10.748;2023-04-25T04:07:52;27.57;;;5.40;;
32094;SDS011;18608;53.688;10.748;2023-04-25T04:10:18;15.10;;;5.07;;
32094;SDS011;18608;53.688;10.748;2023-04-25T04:12:44;30.77;;;5.57;;
32094;SDS011;18608;53.688;10.748;2023-04-25T04:15:10;18.70;;;5.93;;
32094;SDS011;18608;53.688;10.748;2023-04-25T04:17:37;20.10;;;4.97;;
32094;SDS011;18608;53.688;10.748;2023-04-25T04:20:02;21.80;;;5.70;;
32094;SDS011;18608;53.688;10.748;2023-04-25T04:22:28;13.30;;;5.40;;
32094;SDS011;18608;53.688;10.748;2023-04-25T04:24:54;20.47;;;4.13;;
32094;SDS011;18608;53.688;10.748;2023-04-25T04:27:21;32.10;;;4.67;;
32094;SDS011;18608;53.688;10.748;2023-04-25T04:29:47;12.90;;;4.73;;
32094;SDS011;18608;53.688;10.748;2023-04-25T04:32:14;17.63;;;5.73;;
32094;SDS011;18608;53.688;10.748;2023-04-25T04:34:40;21.47;;;5.53;;
32094;SDS011;18608;53.688;10.748;2023-04-25T04:37:06;10.07;;;4.37;;
32094;SDS011;18608;53.688;10.748;2023-04-25T04:39:32;11.70;;;5.20;;
32094;SDS011;18608;53.688;10.748;2023-04-25T04:41:59;12.83;;;5.30;;
32094;SDS011;18608;53.688;10.748;2023-04-25T04:44:26;27.60;;;5.90;;
32094;SDS011;18608;53.688;10.748;2023-04-25T04:46:53;11.33;;;3.90;;
32094;SDS011;18608;53.688;10.748;2023-04-25T04:49:19;16.90;;;4.90;;
32094;SDS011;18608;53.688;10.748;2023-04-25T04:51:45;34.33;;;4.70;;
32094;SDS011;18608;53.688;10.748;2023-04-25T04:54:12;17.63;;;4.30;;
32094;SDS011;18608;53.688;10.748;2023-04-25T04:56:38;19.30;;;4.93;;
32094;SDS011;18608;53.688;10.748;2023-04-25T04:59:03;18.20;;;4.83;;
32094;SDS011;18608;53.688;10.748;2023-04-25T05:01:29;19.33;;;5.70;;
32094;SDS011;18608;53.688;10.748;2023-04-25T05:03:56;23.37;;;5.50;;
32094;SDS011;18608;53.688;10.748;2023-04-25T05:06:25;21.43;;;5.53;;
32094;SDS011;18608;53.688;10.748;2023-04-25T05:08:52;26.70;;;6.10;;
32094;SDS011;18608;53.688;10.748;2023-04-25T05:11:18;14.60;;;4.57;;
32094;SDS011;18608;53.688;10.748;2023-04-25T05:13:44;28.70;;;5.27;;
32094;SDS011;18608;53.688;10.748;2023-04-25T05:16:10;16.90;;;4.50;;
32094;SDS011;18608;53.688;10.748;2023-04-25T05:18:36;13.90;;;4.37;;
32094;SDS011;18608;53.688;10.748;2023-04-25T05:21:03;21.53;;;5.33;;
32094;SDS011;18608;53.688;10.748;2023-04-25T05:23:29;18.13;;;4.13;;
32094;SDS011;18608;53.688;10.748;2023-04-25T05:25:55;13.47;;;4.30;;
32094;SDS011;18608;53.688;10.748;2023-04-25T05:28:21;22.67;;;5.90;;
32094;SDS011;18608;53.688;10.748;2023-04-25T05:30:47;10.43;;;3.40;;
32094;SDS011;18608;53.688;10.748;2023-04-25T05:33:13;22.57;;;5.20;;
32094;SDS011;18608;53.688;10.748;2023-04-25T05:35:39;8.80;;;3.77;;
32094;SDS011;18608;53.688;10.748;2023-04-25T05:38:05;11.50;;;4.50;;
32094;SDS011;18608;53.688;10.748;2023-04-25T05:40:31;17.43;;;4.00;;
32094;SDS011;18608;53.688;10.748;2023-04-25T05:42:57;19.90;;;4.70;;
32094;SDS011;18608;53.688;10.748;2023-04-25T05:45:23;18.00;;;4.17;;
32094;SDS011;18608;53.688;10.748;2023-04-25T05:47:49;19.53;;;4.50;;
32094;SDS011;18608;53.688;10.748;2023-04-25T05:50:15;16.33;;;3.43;;
32094;SDS011;18608;53.688;10.748;2023-04-25T05:52:41;12.13;;;4.13;;
32094;SDS011;18608;53.688;10.748;2023-04-25T05:55:08;21.20;;;3.70;;
32094;SDS011;18608;53.688;10.748;2023-04-25T05:57:34;10.83;;;3.00;;
32094;SDS011;18608;53.688;10.748;2023-04-25T06:00:00;13.60;;;3.67;;
32094;SDS011;18608;53.688;10.748;2023-04-25T06:02:26;18.20;;;3.50;;
32094;SDS011;18608;53.688;10.748;2023-04-25T06:04:52;8.30;;;3.50;;
32094;SDS011;18608;53.688;10.748;2023-04-25T06:07:19;15.47;;;3.70;;
32094;SDS011;18608;53.688;10.748;2023-04-25T06:09:45;12.97;;;3.50;;
32094;SDS011;18608;53.688;10.748;2023-04-25T06:12:11;10.53;;;4.27;;
32094;SDS011;18608;53.688;10.748;2023-04-25T06:14:38;15.23;;;4.67;;
32094;SDS011;18608;53.688;10.748;2023-04-25T06:17:03;10.20;;;4.73;;
32094;SDS011;18608;53.688;10.748;2023-04-25T06:19:33;11.93;;;4.47;;
32094;SDS011;18608;53.688;10.748;2023-04-25T06:22:00;13.43;;;4.10;;
32094;SDS011;18608;53.688;10.748;2023-04-25T06:24:26;13.57;;;4.50;;
32094;SDS011;18608;53.688;10.748;2023-04-25T06:26:52;13.23;;;4.37;;
32094;SDS011;18608;53.688;10.748;2023-04-25T06:29:18;6.00;;;3.57;;
32094;SDS011;18608;53.688;10.748;2023-04-25T06:31:44;16.43;;;4.30;;
32094;SDS011;18608;53.688;10.748;2023-04-25T06:34:10;14.73;;;3.77;;
32094;SDS011;18608;53.688;10.748;2023-04-25T06:36:36;10.83;;;3.40;;
32094;SDS011;18608;53.688;10.748;2023-04-25T06:39:02;13.83;;;3.77;;
32094;SDS011;18608;53.688;10.748;2023-04-25T06:41:28;21.43;;;4.60;;
32094;SDS011;18608;53.688;10.748;2023-04-25T06:43:54;12.80;;;3.27;;
32094;SDS011;18608;53.688;10.748;2023-04-25T06:46:20;10.90;;;2.80;;
32094;SDS011;18608;53.688;10.748;2023-04-25T06:48:46;14.93;;;4.83;;
32094;SDS011;18608;53.688;10.748;2023-04-25T06:51:12;13.00;;;4.97;;
32094;SDS011;18608;53.688;10.748;2023-04-25T06:53:39;11.10;;;4.00;;
32094;SDS011;18608;53.688;10.748;2023-04-25T06:56:05;17.10;;;3.47;;
32094;SDS011;18608;53.688;10.748;2023-04-25T06:58:31;9.80;;;4.00;;
32094;SDS011;18608;53.688;10.748;2023-04-25T07:00:57;13.93;;;3.43;;
32094;SDS011;18608;53.688;10.748;2023-04-25T07:03:23;16.17;;;3.57;;
32094;SDS011;18608;53.688;10.748;2023-04-25T07:05:49;18.10;;;3.90;;
32094;SDS011;18608;53.688;10.748;2023-04-25T07:08:15;6.43;;;2.80;;
32094;SDS011;18608;53.688;10.748;2023-04-25T07:10:41;9.80;;;2.70;;
32094;SDS011;18608;53.688;10.748;2023-04-25T07:13:07;5.77;;;3.10;;
32094;SDS011;18608;53.688;10.748;2023-04-25T07:15:33;27.97;;;3.57;;
32094;SDS011;18608;53.688;10.748;2023-04-25T07:17:59;18.93;;;4.00;;
32094;SDS011;18608;53.688;10.748;2023-04-25T07:20:25;9.60;;;2.97;;
32094;SDS011;18608;53.688;10.748;2023-04-25T07:22:52;11.07;;;4.00;;
32094;SDS011;18608;53.688;10.748;2023-04-25T07:25:18;13.63;;;3.30;;
32094;SDS011;18608;53.688;10.748;2023-04-25T07:27:45;10.37;;;4.07;;
32094;SDS011;18608;53.688;10.748;2023-04-25T07:30:11;12.43;;;2.63;;
32094;SDS011;18608;53.688;10.748;2023-04-25T07:32:37;6.40;;;3.27;;
32094;SDS011;18608;53.688;10.748;2023-04-25T07:35:03;23.10;;;3.53;;
32094;SDS011;18608;53.688;10.748;2023-04-25T07:37:29;21.63;;;3.80;;
32094;SDS011;18608;53.688;10.748;2023-04-25T07:39:55;7.60;;;3.23;;
32094;SDS011;18608;53.688;10.748;2023-04-25T07:42:21;16.53;;;3.10;;
32094;SDS011;18608;53.688;10.748;2023-04-25T07:44:47;12.90;;;3.10;;
32094;SDS011;18608;53.688;10.748;2023-04-25T07:47:13;15.30;;;3.70;;
32094;SDS011;18608;53.688;10.748;2023-04-25T07:49:39;8.17;;;3.47;;
32094;SDS011;18608;53.688;10.748;2023-04-25T07:52:05;10.10;;;3.80;;
32094;SDS011;18608;53.688;10.748;2023-04-25T07:54:32;12.33;;;3.30;;
32094;SDS011;18608;53.688;10.748;2023-04-25T07:56:58;11.90;;;3.20;;
32094;SDS011;18608;53.688;10.748;2023-04-25T07:59:24;8.10;;;2.63;;
32094;SDS011;18608;53.688;10.748;2023-04-25T08:01:50;10.43;;;4.03;;
32094;SDS011;18608;53.688;10.748;2023-04-25T08:04:16;10.47;;;3.47;;
32094;SDS011;18608;53.688;10.748;2023-04-25T08:06:42;6.10;;;3.10;;
32094;SDS011;18608;53.688;10.748;2023-04-25T08:09:08;15.70;;;3.60;;
32094;SDS011;18608;53.688;10.748;2023-04-25T08:11:35;10.67;;;2.57;;
32094;SDS011;18608;53.688;10.748;2023-04-25T08:14:01;11.70;;;2.13;;
32094;SDS011;18608;53.688;10.748;2023-04-25T08:16:27;8.00;;;2.70;;
32094;SDS011;18608;53.688;10.748;2023-04-25T08:18:53;16.43;;;3.53;;
32094;SDS011;18608;53.688;10.748;2023-04-25T08:21:19;12.53;;;3.43;;
32094;SDS011;18608;53.688;10.748;2023-04-25T08:23:45;13.17;;;2.90;;
32094;SDS011;18608;53.688;10.748;2023-04-25T08:26:11;6.10;;;2.47;;
32094;SDS011;18608;53.688;10.748;2023-04-25T08:28:37;10.43;;;3.43;;
32094;SDS011;18608;53.688;10.748;2023-04-25T08:31:03;6.23;;;2.43;;
32094;SDS011;18608;53.688;10.748;2023-04-25T08:33:29;9.53;;;2.13;;
32094;SDS011;18608;53.688;10.748;2023-04-25T08:35:57;4.37;;;1.90;;
32094;SDS011;18608;53.688;10.748;2023-04-25T08:38:23;5.30;;;2.20;;
32094;SDS011;18608;53.688;10.748;2023-04-25T08:40:49;8.20;;;2.27;;
32094;SDS011;18608;53.688;10.748;2023-04-25T08:43:17;7.37;;;2.47;;
32094;SDS011;18608;53.688;10.748;2023-04-25T08:45:45;8.67;;;3.00;;
32094;SDS011;18608;53.688;10.748;2023-04-25T08:48:12;14.90;;;3.30;;
32094;SDS011;18608;53.688;10.748;2023-04-25T08:50:39;7.20;;;2.23;;
32094;SDS011;18608;53.688;10.748;2023-04-25T08:53:09;12.03;;;2.50;;
32094;SDS011;18608;53.688;10.748;2023-04-25T08:55:43;10.73;;;2.60;;
32094;SDS011;18608;53.688;10.748;2023-04-25T08:58:11;5.50;;;2.70;;
32094;SDS011;18608;53.688;10.748;2023-04-25T09:00:38;12.93;;;2.17;;
32094;SDS011;18608;53.688;10.748;2023-04-25T09:03:04;9.93;;;2.20;;
32094;SDS011;18608;53.688;10.748;2023-04-25T09:05:31;11.23;;;2.53;;
32094;SDS011;18608;53.688;10.748;2023-04-25T09:07:57;18.30;;;3.00;;
32094;SDS011;18608;53.688;10.748;2023-04-25T09:10:25;7.67;;;2.57;;
32094;SDS011;18608;53.688;10.748;2023-04-25T09:13:14;12.17;;;5.07;;
32094;SDS011;18608;53.688;10.748;2023-04-25T09:15:46;16.50;;;2.50;;
32094;SDS011;18608;53.688;10.748;2023-04-25T09:18:12;10.73;;;2.67;;
32094;SDS011;18608;53.688;10.748;2023-04-25T09:20:41;4.40;;;2.50;;
32094;SDS011;18608;53.688;10.748;2023-04-25T09:23:08;8.00;;;2.87;;
32094;SDS011;18608;53.688;10.748;2023-04-25T09:25:37;3.47;;;1.87;;
32094;SDS011;18608;53.688;10.748;2023-04-25T09:28:08;5.93;;;2.50;;
32094;SDS011;18608;53.688;10.748;2023-04-25T09:30:35;10.90;;;3.23;;
32094;SDS011;18608;53.688;10.748;2023-04-25T09:33:05;16.30;;;3.33;;
32094;SDS011;18608;53.688;10.748;2023-04-25T09:35:34;8.90;;;2.33;;
32094;SDS011;18608;53.688;10.748;2023-04-25T09:38:14;15.03;;;2.40;;
32094;SDS011;18608;53.688;10.748;2023-04-25T09:40:44;7.50;;;2.70;;
32094;SDS011;18608;53.688;10.748;2023-04-25T09:43:20;10.83;;;2.73;;
32094;SDS011;18608;53.688;10.748;2023-04-25T09:45:47;12.33;;;2.63;;
32094;SDS011;18608;53.688;10.748;2023-04-25T09:48:22;11.80;;;2.53;;
32094;SDS011;18608;53.688;10.748;2023-04-25T09:51:24;6.53;;;2.30;;
32094;SDS011;18608;53.688;10.748;2023-04-25T09:53:45;6.60;;;2.23;;
32094;SDS011;18608;53.688;10.748;2023-04-25T09:56:14;17.27;;;2.63;;
32094;SDS011;18608;53.688;10.748;2023-04-25T09:58:41;6.43;;;2.00;;
32094;SDS011;18608;53.688;10.748;2023-04-25T10:01:08;7.10;;;1.83;;
32094;SDS011;18608;53.688;10.748;2023-04-25T10:03:36;9.00;;;2.30;;
32094;SDS011;18608;53.688;10.748;2023-04-25T10:06:07;8.07;;;1.60;;
32094;SDS011;18608;53.688;10.748;2023-04-25T10:08:35;4.97;;;2.10;;
32094;SDS011;18608;53.688;10.748;2023-04-25T10:11:02;3.83;;;1.50;;
32094;SDS011;18608;53.688;10.748;2023-04-25T10:13:29;3.50;;;1.77;;
32094;SDS011;18608;53.688;10.748;2023-04-25T10:15:59;10.67;;;1.93;;
32094;SDS011;18608;53.688;10.748;2023-04-25T10:18:27;6.37;;;2.30;;
32094;SDS011;18608;53.688;10.748;2023-04-25T10:20:54;9.40;;;1.57;;
32094;SDS011;18608;53.688;10.748;2023-04-25T10:23:22;4.30;;;2.40;;
32094;SDS011;18608;53.688;10.748;2023-04-25T10:25:49;2.20;;;2.00;;
32094;SDS011;18608;53.688;10.748;2023-04-25T10:28:16;11.33;;;1.73;;
32094;SDS011;18608;53.688;10.748;2023-04-25T10:36:07;13.27;;;2.90;;
32094;SDS011;18608;53.688;10.748;2023-04-25T10:38:35;7.50;;;1.90;;
32094;SDS011;18608;53.688;10.748;2023-04-25T10:41:03;18.77;;;2.60;;
32094;SDS011;18608;53.688;10.748;2023-04-25T10:43:34;4.97;;;1.87;;
32094;SDS011;18608;53.688;10.748;2023-04-25T10:48:52;3.47;;;1.50;;
32094;SDS011;18608;53.688;10.748;2023-04-25T10:56:20;6.70;;;2.40;;
32094;SDS011;18608;53.688;10.748;2023-04-25T10:58:52;15.70;;;1.83;;
32094;SDS011;18608;53.688;10.748;2023-04-25T11:01:35;7.10;;;1.93;;
32094;SDS011;18608;53.688;10.748;2023-04-25T11:04:02;5.13;;;2.07;;
32094;SDS011;18608;53.688;10.748;2023-04-25T11:06:37;2.87;;;1.53;;
32094;SDS011;18608;53.688;10.748;2023-04-25T11:09:14;5.13;;;1.40;;
32094;SDS011;18608;53.688;10.748;2023-04-25T11:11:40;8.93;;;2.70;;
32094;SDS011;18608;53.688;10.748;2023-04-25T11:14:06;4.30;;;3.00;;
32094;SDS011;18608;53.688;10.748;2023-04-25T11:16:32;4.30;;;1.77;;
32094;SDS011;18608;53.688;10.748;2023-04-25T11:18:58;4.00;;;1.47;;
32094;SDS011;18608;53.688;10.748;2023-04-25T11:21:25;7.13;;;1.37;;
32094;SDS011;18608;53.688;10.748;2023-04-25T11:23:53;4.63;;;1.27;;
32094;SDS011;18608;53.688;10.748;2023-04-25T11:26:21;6.33;;;2.00;;
32094;SDS011;18608;53.688;10.748;2023-04-25T11:28:48;4.27;;;1.80;;
32094;SDS011;18608;53.688;10.748;2023-04-25T11:31:14;4.13;;;1.20;;
32094;SDS011;18608;53.688;10.748;2023-04-25T11:33:40;3.53;;;1.87;;
32094;SDS011;18608;53.688;10.748;2023-04-25T11:36:07;5.60;;;1.27;;
32094;SDS011;18608;53.688;10.748;2023-04-25T11:38:34;2.80;;;1.33;;
32094;SDS011;18608;53.688;10.748;2023-04-25T11:41:00;6.43;;;1.77;;
32094;SDS011;18608;53.688;10.748;2023-04-25T11:43:26;2.03;;;1.33;;
32094;SDS011;18608;53.688;10.748;2023-04-25T11:45:52;10.13;;;4.37;;
32094;SDS011;18608;53.688;10.748;2023-04-25T11:48:18;9.17;;;2.20;;
32094;SDS011;18608;53.688;10.748;2023-04-25T11:50:45;5.07;;;2.03;;
32094;SDS011;18608;53.688;10.748;2023-04-25T11:53:11;5.27;;;1.70;;
32094;SDS011;18608;53.688;10.748;2023-04-25T11:55:37;8.37;;;2.53;;
32094;SDS011;18608;53.688;10.748;2023-04-25T11:58:04;4.00;;;1.83;;
32094;SDS011;18608;53.688;10.748;2023-04-25T12:00:31;5.80;;;1.53;;
32094;SDS011;18608;53.688;10.748;2023-04-25T12:02:57;6.50;;;1.70;;
32094;SDS011;18608;53.688;10.748;2023-04-25T12:05:24;7.80;;;2.20;;
32094;SDS011;18608;53.688;10.748;2023-04-25T12:07:51;9.40;;;1.33;;
32094;SDS011;18608;53.688;10.748;2023-04-25T12:10:17;8.10;;;1.70;;
32094;SDS011;18608;53.688;10.748;2023-04-25T12:12:47;7.20;;;1.77;;
32094;SDS011;18608;53.688;10.748;2023-04-25T12:15:14;5.27;;;2.20;;
32094;SDS011;18608;53.688;10.748;2023-04-25T12:17:50;7.20;;;1.50;;
32094;SDS011;18608;53.688;10.748;2023-04-25T12:20:20;4.30;;;1.40;;
32094;SDS011;18608;53.688;10.748;2023-04-25T12:22:49;9.90;;;2.20;;
32094;SDS011;18608;53.688;10.748;2023-04-25T12:28:22;7.83;;;1.77;;
32094;SDS011;18608;53.688;10.748;2023-04-25T12:33:25;6.50;;;1.70;;
32094;SDS011;18608;53.688;10.748;2023-04-25T12:35:53;5.10;;;3.37;;
32094;SDS011;18608;53.688;10.748;2023-04-25T12:38:23;15.57;;;4.50;;
32094;SDS011;18608;53.688;10.748;2023-04-25T12:40:49;13.33;;;4.37;;
32094;SDS011;18608;53.688;10.748;2023-04-25T12:43:15;10.77;;;4.47;;
32094;SDS011;18608;53.688;10.748;2023-04-25T12:45:42;10.50;;;3.57;;
32094;SDS011;18608;53.688;10.748;2023-04-25T12:48:08;3.80;;;1.73;;
32094;SDS011;18608;53.688;10.748;2023-04-25T12:50:35;16.63;;;3.57;;
32094;SDS011;18608;53.688;10.748;2023-04-25T12:53:01;6.00;;;2.07;;
32094;SDS011;18608;53.688;10.748;2023-04-25T12:55:27;3.93;;;1.40;;
32094;SDS011;18608;53.688;10.748;2023-04-25T12:57:53;6.10;;;1.60;;
32094;SDS011;18608;53.688;10.748;2023-04-25T13:00:19;3.73;;;1.77;;
32094;SDS011;18608;53.688;10.748;2023-04-25T13:02:45;6.30;;;1.93;;
32094;SDS011;18608;53.688;10.748;2023-04-25T13:05:14;8.60;;;1.80;;
32094;SDS011;18608;53.688;10.748;2023-04-25T13:07:40;3.83;;;1.80;;
32094;SDS011;18608;53.688;10.748;2023-04-25T13:10:06;2.83;;;2.10;;
32094;SDS011;18608;53.688;10.748;2023-04-25T13:12:32;5.83;;;1.70;;
32094;SDS011;18608;53.688;10.748;2023-04-25T13:14:58;4.17;;;1.50;;
32094;SDS011;18608;53.688;10.748;2023-04-25T13:17:24;5.53;;;1.73;;
32094;SDS011;18608;53.688;10.748;2023-04-25T13:19:50;4.43;;;1.57;;
32094;SDS011;18608;53.688;10.748;2023-04-25T13:22:16;4.80;;;2.37;;
32094;SDS011;18608;53.688;10.748;2023-04-25T13:24:44;5.77;;;1.70;;
32094;SDS011;18608;53.688;10.748;2023-04-25T13:27:10;7.83;;;2.43;;
32094;SDS011;18608;53.688;10.748;2023-04-25T13:29:36;6.23;;;1.60;;
32094;SDS011;18608;53.688;10.748;2023-04-25T13:32:03;5.03;;;1.87;;
32094;SDS011;18608;53.688;10.748;2023-04-25T13:34:30;10.30;;;2.40;;
32094;SDS011;18608;53.688;10.748;2023-04-25T13:36:56;2.70;;;1.80;;
32094;SDS011;18608;53.688;10.748;2023-04-25T13:39:22;10.53;;;3.20;;
32094;SDS011;18608;53.688;10.748;2023-04-25T13:41:48;16.23;;;1.93;;
32094;SDS011;18608;53.688;10.748;2023-04-25T13:44:14;3.20;;;2.03;;
32094;SDS011;18608;53.688;10.748;2023-04-25T13:46:40;6.03;;;2.00;;
32094;SDS011;18608;53.688;10.748;2023-04-25T13:49:06;2.73;;;1.40;;
32094;SDS011;18608;53.688;10.748;2023-04-25T13:51:32;3.13;;;1.57;;
32094;SDS011;18608;53.688;10.748;2023-04-25T13:53:58;6.23;;;1.57;;
32094;SDS011;18608;53.688;10.748;2023-04-25T13:56:24;3.70;;;1.80;;
32094;SDS011;18608;53.688;10.748;2023-04-25T13:58:50;3.77;;;1.93;;
32094;SDS011;18608;53.688;10.748;2023-04-25T14:01:18;5.23;;;2.17;;
32094;SDS011;18608;53.688;10.748;2023-04-25T14:03:46;8.50;;;1.50;;
32094;SDS011;18608;53.688;10.748;2023-04-25T14:06:12;2.27;;;2.07;;
32094;SDS011;18608;53.688;10.748;2023-04-25T14:08:38;10.93;;;2.07;;
32094;SDS011;18608;53.688;10.748;2023-04-25T14:11:05;6.50;;;1.37;;
32094;SDS011;18608;53.688;10.748;2023-04-25T14:13:31;7.00;;;2.30;;
32094;SDS011;18608;53.688;10.748;2023-04-25T14:15:57;6.83;;;3.10;;
32094;SDS011;18608;53.688;10.748;2023-04-25T14:18:23;4.07;;;2.50;;
32094;SDS011;18608;53.688;10.748;2023-04-25T14:20:48;6.67;;;2.30;;
32094;SDS011;18608;53.688;10.748;2023-04-25T14:23:14;4.87;;;1.90;;
32094;SDS011;18608;53.688;10.748;2023-04-25T14:25:42;5.43;;;1.47;;
32094;SDS011;18608;53.688;10.748;2023-04-25T14:28:10;10.13;;;1.90;;
32094;SDS011;18608;53.688;10.748;2023-04-25T14:30:35;7.80;;;2.20;;
32094;SDS011;18608;53.688;10.748;2023-04-25T14:33:01;4.60;;;1.60;;
32094;SDS011;18608;53.688;10.748;2023-04-25T14:35:27;7.87;;;1.63;;
32094;SDS011;18608;53.688;10.748;2023-04-25T14:37:53;5.90;;;1.93;;
32094;SDS011;18608;53.688;10.748;2023-04-25T14:40:20;5.53;;;1.30;;
32094;SDS011;18608;53.688;10.748;2023-04-25T14:42:48;4.60;;;2.03;;